sensor_id;sensor_type;location;lat;lon;timestamp;pressure;altitude;pressure_sealevel;temperature;humidity
49841;BME280;35738;49.890;5.930;2023-01-26T00:01:17;96304.78;;;-4.42;100.00
49841;BME280;35738;49.890;5.930;2023-01-26T00:03:44;96312.50;;;-4.52;100.00
49841;BME280;35738;49.890;5.930;2023-01-26T00:06:13;96319.22;;;-4.61;100.00
49841;BME280;35738;49.890;5.930;2023-01-26T00:08:42;96310.94;;;-4.60;100.00
49841;BME280;35738;49.890;5.930;2023-01-26T00:11:11;96311.03;;;-4.66;100.00
49841;BME280;35738;49.890;5.930;2023-01-26T00:13:39;96301.09;;;-4.66;100.00
49841;BME280;35738;49.890;5.930;2023-01-26T00:16:13;96303.56;;;-4.64;100.00
49841;BME280;35738;49.890;5.930;2023-01-26T00:18:41;96296.53;;;-4.47;100.00
49841;BME280;35738;49.890;5.930;2023-01-26T00:21:11;96305.50;;;-4.53;100.00
49841;BME280;35738;49.890;5.930;2023-01-26T00:23:39;96296.19;;;-4.51;100.00
49841;BME280;35738;49.890;5.930;2023-01-26T00:26:08;96299.75;;;-4.57;100.00
49841;BME280;35738;49.890;5.930;2023-01-26T00:28:35;96302.91;;;-4.60;100.00
49841;BME280;35738;49.890;5.930;2023-01-26T00:31:10;96296.94;;;-4.62;100.00
49841;BME280;35738;49.890;5.930;2023-01-26T00:33:38;96296.41;;;-4.70;100.00
49841;BME280;35738;49.890;5.930;2023-01-26T00:36:05;96294.47;;;-4.63;100.00
49841;BME280;35738;49.890;5.930;2023-01-26T00:38:32;96290.00;;;-4.69;100.00
49841;BME280;35738;49.890;5.930;2023-01-26T00:40:59;96295.59;;;-4.53;100.00
49841;BME280;35738;49.890;5.930;2023-01-26T00:43:26;96286.47;;;-4.52;100.00
49841;BME280;35738;49.890;5.930;2023-01-26T00:45:52;96282.09;;;-4.46;100.00
49841;BME280;35738;49.890;5.930;2023-01-26T00:48:19;96279.94;;;-4.56;100.00
49841;BME280;35738;49.890;5.930;2023-01-26T00:50:50;96294.38;;;-4.57;100.00
49841;BME280;35738;49.890;5.930;2023-01-26T00:53:17;96297.75;;;-4.80;100.00
49841;BME280;35738;49.890;5.930;2023-01-26T00:55:43;96286.13;;;-4.73;100.00
49841;BME280;35738;49.890;5.930;2023-01-26T00:58:10;96281.13;;;-4.88;100.00
49841;BME280;35738;49.890;5.930;2023-01-26T01:00:37;96280.22;;;-5.25;100.00
49841;BME280;35738;49.890;5.930;2023-01-26T01:03:05;96271.59;;;-4.84;100.00
49841;BME280;35738;49.890;5.930;2023-01-26T01:05:33;96272.03;;;-4.87;100.00
49841;BME280;35738;49.890;5.930;2023-01-26T01:08:00;96277.69;;;-4.77;100.00
49841;BME280;35738;49.890;5.930;2023-01-26T01:10:27;96266.59;;;-4.81;100.00
49841;BME280;35738;49.890;5.930;2023-01-26T01:12:54;96271.06;;;-4.74;100.00
49841;BME280;35738;49.890;5.930;2023-01-26T01:15:22;96261.91;;;-4.67;100.00
49841;BME280;35738;49.890;5.930;2023-01-26T01:17:49;96264.22;;;-4.70;100.00
49841;BME280;35738;49.890;5.930;2023-01-26T01:20:16;96256.47;;;-4.97;100.00
49841;BME280;35738;49.890;5.930;2023-01-26T01:22:43;96256.16;;;-4.89;100.00
49841;BME280;35738;49.890;5.930;2023-01-26T01:25:09;96264.13;;;-4.82;100.00
49841;BME280;35738;49.890;5.930;2023-01-26T01:27:36;96265.09;;;-4.95;100.00
49841;BME280;35738;49.890;5.930;2023-01-26T01:30:03;96269.56;;;-4.89;100.00
49841;BME280;35738;49.890;5.930;2023-01-26T01:32:37;96265.25;;;-5.08;100.00
49841;BME280;35738;49.890;5.930;2023-01-26T01:35:06;96268.31;;;-5.29;100.00
49841;BME280;35738;49.890;5.930;2023-01-26T01:37:32;96268.88;;;-5.46;100.00
49841;BME280;35738;49.890;5.930;2023-01-26T01:39:59;96270.16;;;-5.05;100.00
49841;BME280;35738;49.890;5.930;2023-01-26T01:42:25;96265.09;;;-5.13;100.00
49841;BME280;35738;49.890;5.930;2023-01-26T01:47:56;96251.59;;;-5.50;100.00
49841;BME280;35738;49.890;5.930;2023-01-26T01:50:25;96245.69;;;-5.83;100.00
49841;BME280;35738;49.890;5.930;2023-01-26T01:52:53;96242.78;;;-5.57;100.00
49841;BME280;35738;49.890;5.930;2023-01-26T01:55:22;96241.44;;;-5.66;100.00
49841;BME280;35738;49.890;5.930;2023-01-26T01:57:57;96254.88;;;-5.48;100.00
49841;BME280;35738;49.890;5.930;2023-01-26T02:00:25;96243.66;;;-5.63;100.00
49841;BME280;35738;49.890;5.930;2023-01-26T02:03:12;96246.44;;;-5.51;100.00
49841;BME280;35738;49.890;5.930;2023-01-26T02:05:55;96245.16;;;-5.67;100.00
49841;BME280;35738;49.890;5.930;2023-01-26T02:08:28;96241.38;;;-5.84;100.00
49841;BME280;35738;49.890;5.930;2023-01-26T02:10:59;96238.69;;;-5.84;100.00
49841;BME280;35738;49.890;5.930;2023-01-26T02:13:28;96232.78;;;-5.68;100.00
49841;BME280;35738;49.890;5.930;2023-01-26T02:15:58;96227.88;;;-5.71;100.00
49841;BME280;35738;49.890;5.930;2023-01-26T02:18:25;96230.91;;;-5.43;100.00
49841;BME280;35738;49.890;5.930;2023-01-26T02:20:57;96228.59;;;-5.39;100.00
49841;BME280;35738;49.890;5.930;2023-01-26T02:26:13;96234.63;;;-5.44;100.00
49841;BME280;35738;49.890;5.930;2023-01-26T02:28:41;96226.59;;;-5.44;100.00
49841;BME280;35738;49.890;5.930;2023-01-26T02:31:10;96230.16;;;-5.50;100.00
49841;BME280;35738;49.890;5.930;2023-01-26T02:33:37;96215.63;;;-5.85;100.00
49841;BME280;35738;49.890;5.930;2023-01-26T02:36:05;96213.03;;;-5.92;100.00
49841;BME280;35738;49.890;5.930;2023-01-26T02:38:41;96218.56;;;-5.68;100.00
49841;BME280;35738;49.890;5.930;2023-01-26T02:41:14;96224.56;;;-5.91;100.00
49841;BME280;35738;49.890;5.930;2023-01-26T02:44:07;96199.31;;;-5.59;100.00
49841;BME280;35738;49.890;5.930;2023-01-26T02:46:35;96192.78;;;-5.45;100.00
49841;BME280;35738;49.890;5.930;2023-01-26T02:49:02;96187.59;;;-5.39;100.00
49841;BME280;35738;49.890;5.930;2023-01-26T02:51:47;96194.59;;;-5.38;100.00
49841;BME280;35738;49.890;5.930;2023-01-26T02:54:14;96200.44;;;-5.48;100.00
49841;BME280;35738;49.890;5.930;2023-01-26T02:57:01;96196.94;;;-5.49;100.00
49841;BME280;35738;49.890;5.930;2023-01-26T02:59:27;96192.91;;;-5.58;100.00
49841;BME280;35738;49.890;5.930;2023-01-26T03:01:55;96180.78;;;-5.60;100.00
49841;BME280;35738;49.890;5.930;2023-01-26T03:04:23;96177.22;;;-5.54;100.00
49841;BME280;35738;49.890;5.930;2023-01-26T03:06:49;96192.69;;;-5.56;100.00
49841;BME280;35738;49.890;5.930;2023-01-26T03:09:16;96186.16;;;-5.60;100.00
49841;BME280;35738;49.890;5.930;2023-01-26T03:11:43;96176.50;;;-5.43;100.00
49841;BME280;35738;49.890;5.930;2023-01-26T03:14:13;96169.78;;;-5.34;100.00
49841;BME280;35738;49.890;5.930;2023-01-26T03:16:40;96178.56;;;-5.45;100.00
49841;BME280;35738;49.890;5.930;2023-01-26T03:19:10;96175.97;;;-5.52;100.00
49841;BME280;35738;49.890;5.930;2023-01-26T03:21:57;96168.44;;;-5.43;100.00
49841;BME280;35738;49.890;5.930;2023-01-26T03:24:42;96165.63;;;-5.30;100.00
49841;BME280;35738;49.890;5.930;2023-01-26T03:27:39;96169.66;;;-5.21;100.00
49841;BME280;35738;49.890;5.930;2023-01-26T03:30:06;96169.00;;;-5.16;100.00
49841;BME280;35738;49.890;5.930;2023-01-26T03:32:34;96169.03;;;-5.41;100.00
49841;BME280;35738;49.890;5.930;2023-01-26T03:35:00;96166.28;;;-5.34;100.00
49841;BME280;35738;49.890;5.930;2023-01-26T03:37:27;96171.84;;;-5.54;100.00
49841;BME280;35738;49.890;5.930;2023-01-26T03:40:03;96177.78;;;-5.70;100.00
49841;BME280;35738;49.890;5.930;2023-01-26T03:42:49;96166.41;;;-5.66;100.00
49841;BME280;35738;49.890;5.930;2023-01-26T03:45:34;96159.28;;;-5.54;100.00
49841;BME280;35738;49.890;5.930;2023-01-26T03:48:19;96161.81;;;-5.40;100.00
49841;BME280;35738;49.890;5.930;2023-01-26T03:51:04;96160.75;;;-5.76;100.00
49841;BME280;35738;49.890;5.930;2023-01-26T03:53:49;96149.22;;;-6.01;100.00
49841;BME280;35738;49.890;5.930;2023-01-26T03:56:35;96154.97;;;-5.98;100.00
49841;BME280;35738;49.890;5.930;2023-01-26T03:59:04;96159.16;;;-5.84;100.00
49841;BME280;35738;49.890;5.930;2023-01-26T04:01:38;96162.69;;;-5.65;100.00
49841;BME280;35738;49.890;5.930;2023-01-26T04:04:06;96169.69;;;-5.64;100.00
49841;BME280;35738;49.890;5.930;2023-01-26T04:06:52;96151.53;;;-5.62;100.00
49841;BME280;35738;49.890;5.930;2023-01-26T04:09:37;96150.66;;;-5.56;100.00
49841;BME280;35738;49.890;5.930;2023-01-26T04:12:06;96146.94;;;-5.55;100.00
49841;BME280;35738;49.890;5.930;2023-01-26T04:14:35;96153.25;;;-5.49;100.00
49841;BME280;35738;49.890;5.930;2023-01-26T04:17:20;96157.84;;;-5.74;100.00
49841;BME280;35738;49.890;5.930;2023-01-26T04:20:05;96150.84;;;-5.76;100.00
49841;BME280;35738;49.890;5.930;2023-01-26T04:22:51;96160.81;;;-5.83;100.00
49841;BME280;35738;49.890;5.930;2023-01-26T04:25:20;96158.28;;;-5.78;100.00
49841;BME280;35738;49.890;5.930;2023-01-26T04:27:47;96153.25;;;-5.67;100.00
49841;BME280;35738;49.890;5.930;2023-01-26T04:30:15;96157.78;;;-5.68;100.00
49841;BME280;35738;49.890;5.930;2023-01-26T04:32:42;96157.13;;;-5.63;100.00
49841;BME280;35738;49.890;5.930;2023-01-26T04:35:09;96152.41;;;-5.68;100.00
49841;BME280;35738;49.890;5.930;2023-01-26T04:37:37;96155.09;;;-5.68;100.00
49841;BME280;35738;49.890;5.930;2023-01-26T04:40:05;96155.66;;;-5.84;100.00
49841;BME280;35738;49.890;5.930;2023-01-26T04:42:32;96145.41;;;-6.12;100.00
49841;BME280;35738;49.890;5.930;2023-01-26T04:44:59;96149.88;;;-5.81;100.00
49841;BME280;35738;49.890;5.930;2023-01-26T04:47:25;96147.81;;;-5.61;100.00
49841;BME280;35738;49.890;5.930;2023-01-26T04:49:54;96144.88;;;-5.78;100.00
49841;BME280;35738;49.890;5.930;2023-01-26T04:52:21;96141.09;;;-5.70;100.00
49841;BME280;35738;49.890;5.930;2023-01-26T04:54:47;96141.16;;;-5.77;100.00
49841;BME280;35738;49.890;5.930;2023-01-26T04:57:14;96148.22;;;-5.82;100.00
49841;BME280;35738;49.890;5.930;2023-01-26T04:59:41;96142.59;;;-5.92;100.00
49841;BME280;35738;49.890;5.930;2023-01-26T05:02:08;96143.31;;;-5.85;100.00
49841;BME280;35738;49.890;5.930;2023-01-26T05:04:34;96139.25;;;-5.69;100.00
49841;BME280;35738;49.890;5.930;2023-01-26T05:07:01;96139.16;;;-5.81;100.00
49841;BME280;35738;49.890;5.930;2023-01-26T05:09:28;96139.38;;;-5.83;100.00
49841;BME280;35738;49.890;5.930;2023-01-26T05:11:54;96128.88;;;-5.84;100.00
49841;BME280;35738;49.890;5.930;2023-01-26T05:14:41;96129.59;;;-5.95;100.00
49841;BME280;35738;49.890;5.930;2023-01-26T05:17:07;96127.97;;;-5.96;100.00
49841;BME280;35738;49.890;5.930;2023-01-26T05:19:34;96120.22;;;-6.04;100.00
49841;BME280;35738;49.890;5.930;2023-01-26T05:22:01;96127.34;;;-5.92;100.00
49841;BME280;35738;49.890;5.930;2023-01-26T05:24:27;96129.59;;;-5.95;100.00
49841;BME280;35738;49.890;5.930;2023-01-26T05:26:54;96137.22;;;-5.92;100.00
49841;BME280;35738;49.890;5.930;2023-01-26T05:29:40;96139.47;;;-5.89;100.00
49841;BME280;35738;49.890;5.930;2023-01-26T05:32:07;96143.47;;;-5.80;100.00
49841;BME280;35738;49.890;5.930;2023-01-26T05:34:33;96141.06;;;-5.88;100.00
49841;BME280;35738;49.890;5.930;2023-01-26T05:37:00;96137.22;;;-5.74;100.00
49841;BME280;35738;49.890;5.930;2023-01-26T05:39:27;96143.63;;;-5.93;100.00
49841;BME280;35738;49.890;5.930;2023-01-26T05:41:53;96144.31;;;-6.04;100.00
49841;BME280;35738;49.890;5.930;2023-01-26T05:44:23;96133.75;;;-5.99;100.00
49841;BME280;35738;49.890;5.930;2023-01-26T05:46:52;96143.06;;;-6.02;100.00
49841;BME280;35738;49.890;5.930;2023-01-26T05:49:19;96154.53;;;-5.95;100.00
49841;BME280;35738;49.890;5.930;2023-01-26T05:51:45;96154.63;;;-6.08;100.00
49841;BME280;35738;49.890;5.930;2023-01-26T05:54:12;96146.56;;;-6.01;100.00
49841;BME280;35738;49.890;5.930;2023-01-26T05:56:39;96138.28;;;-5.93;100.00
49841;BME280;35738;49.890;5.930;2023-01-26T05:59:05;96149.06;;;-6.06;100.00
49841;BME280;35738;49.890;5.930;2023-01-26T06:01:32;96146.81;;;-6.10;100.00
49841;BME280;35738;49.890;5.930;2023-01-26T06:03:59;96152.41;;;-6.11;100.00
49841;BME280;35738;49.890;5.930;2023-01-26T06:06:25;96143.56;;;-6.12;100.00
49841;BME280;35738;49.890;5.930;2023-01-26T06:08:52;96147.81;;;-6.04;100.00
49841;BME280;35738;49.890;5.930;2023-01-26T06:11:18;96145.13;;;-6.04;100.00
49841;BME280;35738;49.890;5.930;2023-01-26T06:13:45;96148.03;;;-6.05;100.00
49841;BME280;35738;49.890;5.930;2023-01-26T06:16:12;96148.75;;;-5.92;100.00
49841;BME280;35738;49.890;5.930;2023-01-26T06:18:38;96141.78;;;-5.74;100.00
49841;BME280;35738;49.890;5.930;2023-01-26T06:21:05;96149.88;;;-5.81;100.00
49841;BME280;35738;49.890;5.930;2023-01-26T06:23:32;96149.28;;;-5.83;100.00
49841;BME280;35738;49.890;5.930;2023-01-26T06:25:59;96150.47;;;-5.79;100.00
49841;BME280;35738;49.890;5.930;2023-01-26T06:28:27;96145.34;;;-5.81;100.00
49841;BME280;35738;49.890;5.930;2023-01-26T06:31:05;96148.38;;;-5.77;100.00
49841;BME280;35738;49.890;5.930;2023-01-26T06:33:35;96150.84;;;-5.76;100.00
49841;BME280;35738;49.890;5.930;2023-01-26T06:36:07;96146.91;;;-5.73;100.00
49841;BME280;35738;49.890;5.930;2023-01-26T06:38:35;96155.75;;;-5.72;100.00
49841;BME280;35738;49.890;5.930;2023-01-26T06:41:04;96153.31;;;-5.56;100.00
49841;BME280;35738;49.890;5.930;2023-01-26T06:43:32;96160.16;;;-5.60;100.00
49841;BME280;35738;49.890;5.930;2023-01-26T06:45:59;96163.16;;;-5.50;100.00
49841;BME280;35738;49.890;5.930;2023-01-26T06:48:29;96159.13;;;-5.40;100.00
49841;BME280;35738;49.890;5.930;2023-01-26T06:50:57;96158.09;;;-5.39;100.00
49841;BME280;35738;49.890;5.930;2023-01-26T06:53:28;96155.88;;;-5.43;100.00
49841;BME280;35738;49.890;5.930;2023-01-26T06:55:55;96155.41;;;-5.39;100.00
49841;BME280;35738;49.890;5.930;2023-01-26T06:58:22;96148.72;;;-5.30;100.00
49841;BME280;35738;49.890;5.930;2023-01-26T07:00:49;96160.19;;;-5.23;100.00
49841;BME280;35738;49.890;5.930;2023-01-26T07:03:15;96158.06;;;-5.15;100.00
49841;BME280;35738;49.890;5.930;2023-01-26T07:05:42;96147.69;;;-5.11;100.00
49841;BME280;35738;49.890;5.930;2023-01-26T07:08:08;96153.06;;;-5.11;100.00
49841;BME280;35738;49.890;5.930;2023-01-26T07:10:36;96149.13;;;-5.08;100.00
49841;BME280;35738;49.890;5.930;2023-01-26T07:13:05;96155.94;;;-4.94;100.00
49841;BME280;35738;49.890;5.930;2023-01-26T07:15:32;96158.63;;;-4.94;100.00
49841;BME280;35738;49.890;5.930;2023-01-26T07:17:59;96157.22;;;-4.97;100.00
49841;BME280;35738;49.890;5.930;2023-01-26T07:20:26;96163.25;;;-5.01;100.00
49841;BME280;35738;49.890;5.930;2023-01-26T07:22:53;96164.06;;;-5.01;100.00
49841;BME280;35738;49.890;5.930;2023-01-26T07:25:19;96176.59;;;-4.95;100.00
49841;BME280;35738;49.890;5.930;2023-01-26T07:27:46;96174.94;;;-4.96;100.00
49841;BME280;35738;49.890;5.930;2023-01-26T07:30:13;96174.06;;;-4.90;100.00
49841;BME280;35738;49.890;5.930;2023-01-26T07:32:40;96178.19;;;-4.75;100.00
49841;BME280;35738;49.890;5.930;2023-01-26T07:35:06;96172.38;;;-4.72;100.00
49841;BME280;35738;49.890;5.930;2023-01-26T07:37:33;96182.75;;;-4.76;100.00
49841;BME280;35738;49.890;5.930;2023-01-26T07:40:00;96186.03;;;-4.74;100.00
49841;BME280;35738;49.890;5.930;2023-01-26T07:42:26;96176.25;;;-4.68;100.00
49841;BME280;35738;49.890;5.930;2023-01-26T07:44:53;96179.44;;;-4.60;100.00
49841;BME280;35738;49.890;5.930;2023-01-26T07:47:20;96179.66;;;-4.61;100.00
49841;BME280;35738;49.890;5.930;2023-01-26T07:49:46;96186.06;;;-4.62;100.00
49841;BME280;35738;49.890;5.930;2023-01-26T07:52:13;96187.41;;;-4.53;100.00
49841;BME280;35738;49.890;5.930;2023-01-26T07:54:39;96179.72;;;-4.50;100.00
49841;BME280;35738;49.890;5.930;2023-01-26T07:57:06;96185.66;;;-4.48;100.00
49841;BME280;35738;49.890;5.930;2023-01-26T07:59:33;96180.97;;;-4.34;100.00
49841;BME280;35738;49.890;5.930;2023-01-26T08:02:00;96185.16;;;-4.38;100.00
49841;BME280;35738;49.890;5.930;2023-01-26T08:04:27;96195.53;;;-4.41;100.00
49841;BME280;35738;49.890;5.930;2023-01-26T08:06:53;96188.09;;;-4.28;100.00
49841;BME280;35738;49.890;5.930;2023-01-26T08:09:20;96198.13;;;-4.35;100.00
49841;BME280;35738;49.890;5.930;2023-01-26T08:11:47;96189.78;;;-4.15;100.00
49841;BME280;35738;49.890;5.930;2023-01-26T08:14:14;96190.72;;;-4.09;100.00
49841;BME280;35738;49.890;5.930;2023-01-26T08:16:40;96180.34;;;-4.06;100.00
49841;BME280;35738;49.890;5.930;2023-01-26T08:19:07;96186.06;;;-4.02;100.00
49841;BME280;35738;49.890;5.930;2023-01-26T08:21:34;96189.81;;;-4.03;100.00
49841;BME280;35738;49.890;5.930;2023-01-26T08:24:00;96190.38;;;-4.01;100.00
49841;BME280;35738;49.890;5.930;2023-01-26T08:26:28;96189.59;;;-3.90;100.00
49841;BME280;35738;49.890;5.930;2023-01-26T08:28:55;96191.34;;;-3.84;100.00
49841;BME280;35738;49.890;5.930;2023-01-26T08:31:22;96190.75;;;-3.86;100.00
49841;BME280;35738;49.890;5.930;2023-01-26T08:33:51;96198.72;;;-3.79;100.00
49841;BME280;35738;49.890;5.930;2023-01-26T08:36:19;96204.59;;;-3.71;100.00
49841;BME280;35738;49.890;5.930;2023-01-26T08:38:48;96203.56;;;-3.70;100.00
49841;BME280;35738;49.890;5.930;2023-01-26T08:41:15;96192.88;;;-3.76;100.00
49841;BME280;35738;49.890;5.930;2023-01-26T08:43:42;96199.25;;;-3.59;100.00
49841;BME280;35738;49.890;5.930;2023-01-26T08:46:09;96194.09;;;-3.61;100.00
49841;BME280;35738;49.890;5.930;2023-01-26T08:48:36;96204.50;;;-3.53;100.00
49841;BME280;35738;49.890;5.930;2023-01-26T08:51:06;96201.59;;;-3.51;100.00
49841;BME280;35738;49.890;5.930;2023-01-26T08:53:34;96201.34;;;-3.38;100.00
49841;BME280;35738;49.890;5.930;2023-01-26T08:56:06;96204.97;;;-3.32;100.00
49841;BME280;35738;49.890;5.930;2023-01-26T08:58:34;96195.63;;;-3.30;100.00
49841;BME280;35738;49.890;5.930;2023-01-26T09:01:09;96211.28;;;-3.38;100.00
49841;BME280;35738;49.890;5.930;2023-01-26T09:03:36;96210.69;;;-3.29;100.00
49841;BME280;35738;49.890;5.930;2023-01-26T09:06:05;96212.78;;;-3.07;100.00
49841;BME280;35738;49.890;5.930;2023-01-26T09:08:32;96205.78;;;-3.08;100.00
49841;BME280;35738;49.890;5.930;2023-01-26T09:10:59;96206.03;;;-3.22;100.00
49841;BME280;35738;49.890;5.930;2023-01-26T09:13:25;96205.44;;;-3.12;100.00
49841;BME280;35738;49.890;5.930;2023-01-26T09:15:52;96206.94;;;-3.04;100.00
49841;BME280;35738;49.890;5.930;2023-01-26T09:18:19;96216.56;;;-2.97;100.00
49841;BME280;35738;49.890;5.930;2023-01-26T09:20:45;96202.94;;;-2.78;100.00
49841;BME280;35738;49.890;5.930;2023-01-26T09:23:12;96206.31;;;-2.71;100.00
49841;BME280;35738;49.890;5.930;2023-01-26T09:25:40;96207.28;;;-2.77;100.00
49841;BME280;35738;49.890;5.930;2023-01-26T09:28:06;96205.59;;;-2.67;100.00
49841;BME280;35738;49.890;5.930;2023-01-26T09:30:33;96216.59;;;-2.57;100.00
49841;BME280;35738;49.890;5.930;2023-01-26T09:33:01;96214.47;;;-2.54;100.00
49841;BME280;35738;49.890;5.930;2023-01-26T09:35:29;96212.59;;;-2.54;100.00
49841;BME280;35738;49.890;5.930;2023-01-26T09:37:56;96207.25;;;-2.37;100.00
49841;BME280;35738;49.890;5.930;2023-01-26T09:40:34;96216.25;;;-2.32;100.00
49841;BME280;35738;49.890;5.930;2023-01-26T09:43:17;96215.19;;;-2.19;100.00
49841;BME280;35738;49.890;5.930;2023-01-26T09:46:17;96221.47;;;-1.85;100.00
49841;BME280;35738;49.890;5.930;2023-01-26T09:49:08;96217.38;;;-1.71;100.00
49841;BME280;35738;49.890;5.930;2023-01-26T09:51:39;96211.13;;;-1.43;100.00
49841;BME280;35738;49.890;5.930;2023-01-26T09:57:11;96209.91;;;-1.35;100.00
49841;BME280;35738;49.890;5.930;2023-01-26T10:00:00;96207.59;;;-1.26;100.00
49841;BME280;35738;49.890;5.930;2023-01-26T10:07:47;96212.78;;;-0.86;100.00
49841;BME280;35738;49.890;5.930;2023-01-26T10:10:19;96217.25;;;-0.75;100.00
49841;BME280;35738;49.890;5.930;2023-01-26T10:12:49;96220.31;;;-0.88;100.00
49841;BME280;35738;49.890;5.930;2023-01-26T10:17:46;96211.78;;;-0.80;100.00
49841;BME280;35738;49.890;5.930;2023-01-26T10:22:47;96214.47;;;-0.80;100.00
49841;BME280;35738;49.890;5.930;2023-01-26T10:25:18;96223.72;;;-0.76;100.00
49841;BME280;35738;49.890;5.930;2023-01-26T10:27:45;96221.09;;;-0.71;100.00
49841;BME280;35738;49.890;5.930;2023-01-26T10:30:14;96219.41;;;-0.55;100.00
49841;BME280;35738;49.890;5.930;2023-01-26T10:32:43;96217.34;;;-0.48;100.00
49841;BME280;35738;49.890;5.930;2023-01-26T10:35:16;96212.81;;;-0.43;100.00
49841;BME280;35738;49.890;5.930;2023-01-26T10:37:43;96214.50;;;-0.37;100.00
49841;BME280;35738;49.890;5.930;2023-01-26T10:40:10;96209.00;;;-0.47;100.00
49841;BME280;35738;49.890;5.930;2023-01-26T10:42:38;96211.81;;;-0.37;100.00
49841;BME280;35738;49.890;5.930;2023-01-26T10:48:24;96201.25;;;-0.38;100.00
49841;BME280;35738;49.890;5.930;2023-01-26T10:50:53;96192.13;;;-0.32;100.00
49841;BME280;35738;49.890;5.930;2023-01-26T10:53:28;96191.31;;;-0.33;100.00
49841;BME280;35738;49.890;5.930;2023-01-26T10:56:03;96182.06;;;-0.15;100.00
49841;BME280;35738;49.890;5.930;2023-01-26T10:58:47;96185.00;;;-0.16;100.00
49841;BME280;35738;49.890;5.930;2023-01-26T11:01:16;96185.81;;;-0.16;100.00
49841;BME280;35738;49.890;5.930;2023-01-26T11:04:03;96181.41;;;0.00;100.00
49841;BME280;35738;49.890;5.930;2023-01-26T11:06:31;96188.00;;;0.09;100.00
49841;BME280;35738;49.890;5.930;2023-01-26T11:09:18;96176.25;;;0.25;100.00
49841;BME280;35738;49.890;5.930;2023-01-26T11:11:57;96186.03;;;0.31;100.00
49841;BME280;35738;49.890;5.930;2023-01-26T11:14:24;96167.38;;;0.30;100.00
49841;BME280;35738;49.890;5.930;2023-01-26T11:17:21;96165.13;;;0.54;100.00
49841;BME280;35738;49.890;5.930;2023-01-26T11:22:52;96166.78;;;0.60;100.00
49841;BME280;35738;49.890;5.930;2023-01-26T11:25:40;96165.91;;;0.49;100.00
49841;BME280;35738;49.890;5.930;2023-01-26T11:28:31;96171.13;;;0.29;100.00
49841;BME280;35738;49.890;5.930;2023-01-26T11:42:24;96159.47;;;0.23;100.00
49841;BME280;35738;49.890;5.930;2023-01-26T12:00:59;96132.78;;;-0.22;100.00
49841;BME280;35738;49.890;5.930;2023-01-26T12:03:47;96134.22;;;-0.14;100.00
49841;BME280;35738;49.890;5.930;2023-01-26T12:06:17;96131.03;;;-0.06;100.00
49841;BME280;35738;49.890;5.930;2023-01-26T12:08:57;96132.06;;;-0.12;100.00
49841;BME280;35738;49.890;5.930;2023-01-26T12:11:32;96118.38;;;-0.01;100.00
49841;BME280;35738;49.890;5.930;2023-01-26T12:16:46;96123.06;;;0.04;100.00
49841;BME280;35738;49.890;5.930;2023-01-26T12:22:27;96114.22;;;-0.13;100.00
49841;BME280;35738;49.890;5.930;2023-01-26T12:27:51;96107.09;;;0.03;100.00
49841;BME280;35738;49.890;5.930;2023-01-26T12:32:51;96110.66;;;0.08;100.00
49841;BME280;35738;49.890;5.930;2023-01-26T12:44:05;96101.88;;;-0.04;100.00
49841;BME280;35738;49.890;5.930;2023-01-26T12:46:41;96103.09;;;0.10;100.00
49841;BME280;35738;49.890;5.930;2023-01-26T12:49:20;96097.25;;;0.23;100.00
49841;BME280;35738;49.890;5.930;2023-01-26T12:51:52;96103.25;;;0.30;100.00
49841;BME280;35738;49.890;5.930;2023-01-26T12:55:00;96103.69;;;0.17;100.00
49841;BME280;35738;49.890;5.930;2023-01-26T12:57:34;96095.63;;;0.22;100.00
49841;BME280;35738;49.890;5.930;2023-01-26T13:02:45;96085.31;;;0.19;100.00
49841;BME280;35738;49.890;5.930;2023-01-26T13:05:29;96091.81;;;0.18;100.00
49841;BME280;35738;49.890;5.930;2023-01-26T13:07:57;96081.78;;;0.19;100.00
49841;BME280;35738;49.890;5.930;2023-01-26T13:10:26;96073.25;;;0.32;100.00
49841;BME280;35738;49.890;5.930;2023-01-26T13:13:24;96069.25;;;0.45;100.00
49841;BME280;35738;49.890;5.930;2023-01-26T13:15:44;96069.22;;;0.40;100.00
49841;BME280;35738;49.890;5.930;2023-01-26T13:18:15;96063.88;;;0.50;100.00
49841;BME280;35738;49.890;5.930;2023-01-26T13:20:45;96069.53;;;0.43;100.00
49841;BME280;35738;49.890;5.930;2023-01-26T13:27:17;96068.97;;;0.41;100.00
49841;BME280;35738;49.890;5.930;2023-01-26T13:34:54;96072.53;;;0.47;100.00
49841;BME280;35738;49.890;5.930;2023-01-26T13:40:51;96088.75;;;0.47;100.00
49841;BME280;35738;49.890;5.930;2023-01-26T13:46:12;96072.47;;;0.37;100.00
49841;BME280;35738;49.890;5.930;2023-01-26T13:48:46;96078.94;;;0.36;100.00
49841;BME280;35738;49.890;5.930;2023-01-26T13:53:55;96091.47;;;0.47;100.00
49841;BME280;35738;49.890;5.930;2023-01-26T13:56:34;96077.84;;;0.31;100.00
49841;BME280;35738;49.890;5.930;2023-01-26T14:02:09;96099.41;;;0.21;100.00
49841;BME280;35738;49.890;5.930;2023-01-26T14:04:36;96092.28;;;0.10;100.00
49841;BME280;35738;49.890;5.930;2023-01-26T14:07:06;96094.75;;;0.17;100.00
49841;BME280;35738;49.890;5.930;2023-01-26T14:09:49;96096.69;;;0.21;100.00
49841;BME280;35738;49.890;5.930;2023-01-26T14:12:44;96097.22;;;0.18;100.00
49841;BME280;35738;49.890;5.930;2023-01-26T14:15:37;96092.22;;;0.37;100.00
49841;BME280;35738;49.890;5.930;2023-01-26T14:18:04;96105.19;;;0.35;100.00
49841;BME280;35738;49.890;5.930;2023-01-26T14:20:34;96107.50;;;0.21;100.00
49841;BME280;35738;49.890;5.930;2023-01-26T14:23:09;96108.59;;;0.20;100.00
49841;BME280;35738;49.890;5.930;2023-01-26T14:26:04;96096.94;;;0.20;100.00
49841;BME280;35738;49.890;5.930;2023-01-26T14:28:37;96103.19;;;0.20;100.00
49841;BME280;35738;49.890;5.930;2023-01-26T14:31:15;96101.25;;;0.16;100.00
49841;BME280;35738;49.890;5.930;2023-01-26T14:33:43;96103.56;;;0.02;100.00
49841;BME280;35738;49.890;5.930;2023-01-26T14:36:19;96103.50;;;-0.03;100.00
49841;BME280;35738;49.890;5.930;2023-01-26T14:38:48;96111.50;;;0.14;100.00
49841;BME280;35738;49.890;5.930;2023-01-26T14:41:25;96108.88;;;0.24;100.00
49841;BME280;35738;49.890;5.930;2023-01-26T14:43:53;96103.41;;;0.14;100.00
49841;BME280;35738;49.890;5.930;2023-01-26T14:49:15;96103.13;;;0.15;100.00
49841;BME280;35738;49.890;5.930;2023-01-26T14:51:44;96105.53;;;0.12;100.00